Ohshima Kazumaru — JD2908 — position and weather

sailwx.info

Track history (hours):
 
Tides and Currents Weather Stations Pressure Air Temp Water Temp Dewpoint Dewpoint Depression Visibility Wind Speed Wind Dir Waves Ship Positions

Ohshima Kazumaru

Last reported at 2017-Dec-14 06:27 UTC. Time now 2017-Dec-15 08:28 UTC.
Position N 34°19' E 134°30'.

Length 69 m; draft 4 m.

Type: Cargo ship. MMSI: 431000925.

Date/timePositionNaut miles runAvg speedWind from/ knotsBaromVisibWave heightAir tempDewpointWater temp
2017-Dec-14 06:27N 34°19' E 134°30'612.1
2017-Dec-14 06:00N 34°16' E 134°36'611.5
2017-Dec-14 05:30N 34°12' E 134°41'611.8
2017-Dec-14 05:00N 34°07' E 134°45'611.5
2017-Dec-14 04:30N 34°03' E 134°49'611.5
2017-Dec-14 04:00N 33°58' E 134°54'611.2
2017-Dec-14 03:30N 33°54' E 134°58'118 9.6
2017-Dec-13 15:11N 34°28' E 137°14'5110.5
2017-Dec-13 10:20N 34°34' E 138°16'410.5
2017-Dec-13 09:57N 34°36' E 138°20'510.7
2017-Dec-13 09:26N 34°39' E 138°26'410.2
2017-Dec-13 09:00N 34°41' E 138°30'4 8.5
2017-Dec-13 08:30N 34°40' E 138°35'4 8.4
2017-Dec-13 08:00N 34°38' E 138°40'4 7.2
2017-Dec-13 07:29N 34°37' E 138°44'3 5.7
2017-Dec-13 06:59N 34°36' E 138°47'3 5.1
2017-Dec-13 06:19N 34°35' E 138°51'2 6.7
2017-Dec-13 05:59N 34°35' E 138°54'4 7.0
2017-Dec-13 05:29N 34°37' E 138°58'510.9
2017-Dec-13 05:00N 34°41' E 139°02'712.5
2017-Dec-13 04:26N 34°47' E 139°06'812.6
2017-Dec-13 03:47N 34°54' E 139°12'412.0
2017-Dec-13 03:29N 34°55' E 139°16'612.1
2017-Dec-13 02:58N 34°59' E 139°23'612.0
2017-Dec-13 02:28N 35°02' E 139°29'512.0
2017-Dec-13 02:00N 35°04' E 139°35'612.7
2017-Dec-13 01:30N 35°07' E 139°41'612.4
2017-Dec-13 01:00N 35°12' E 139°46'611.6
2017-Dec-13 00:31N 35°18' E 139°44'611.6
2017-Dec-13 00:00N 35°24' E 139°43'612.2
2017-Dec-12 23:30N 35°29' E 139°47'510.3
2017-Dec-12 23:00N 35°34' E 139°48'0 0.1
2017-Dec-12 19:29N 35°34' E 139°48'0 0.0
2017-Dec-12 18:41N 35°34' E 139°48'0 0.0
2017-Dec-12 17:26N 35°34' E 139°48'0 0.0
2017-Dec-12 15:26N 35°34' E 139°48'0 0.0
2017-Dec-12 14:59N 35°34' E 139°48'0 0.0
2017-Dec-12 14:29N 35°34' E 139°48'0 0.0
2017-Dec-12 13:59N 35°34' E 139°48'0 0.0
2017-Dec-12 13:29N 35°34' E 139°48'0 0.0
2017-Dec-12 12:59N 35°34' E 139°48'0 0.0
2017-Dec-12 12:17N 35°34' E 139°48'0 0.0
2017-Dec-12 11:59N 35°34' E 139°48'0 0.0
2017-Dec-12 11:29N 35°34' E 139°48'0 0.0
2017-Dec-12 10:17N 35°34' E 139°48'0 0.1
2017-Dec-12 09:56N 35°34' E 139°48'0 0.0
2017-Dec-12 09:20N 35°34' E 139°48'0 0.0
2017-Dec-12 08:56N 35°34' E 139°48'0 0.0
2017-Dec-12 08:26N 35°34' E 139°48'0 0.0
2017-Dec-12 07:59N 35°34' E 139°48'0 0.0
2017-Dec-12 06:08N 35°34' E 139°48'0 0.0
2017-Dec-12 02:53N 35°34' E 139°48'0 0.0
2017-Dec-12 01:56N 35°34' E 139°48'0 0.0
2017-Dec-12 00:23N 35°34' E 139°48'0 0.0
2017-Dec-11 23:56N 35°34' E 139°48'0 0.0
2017-Dec-11 23:26N 35°34' E 139°48'0 0.0
2017-Dec-11 22:56N 35°34' E 139°48'0 0.0
2017-Dec-11 22:29N 35°34' E 139°48'0 0.0
2017-Dec-11 21:59N 35°34' E 139°48'0 0.0
2017-Dec-11 21:31N 35°34' E 139°48'3 5.9
2017-Dec-11 21:00N 35°37' E 139°49'2 0.3
2017-Dec-11 15:32N 35°38' E 139°48'0 3.6
2017-Dec-11 15:30N 35°38' E 139°48'0 0.0
2017-Dec-10 22:57N 35°38' E 139°48'3 6.4
2017-Dec-10 22:29N 35°36' E 139°51'0 0.3
2017-Dec-10 21:50N 35°36' E 139°51'0 0.0
2017-Dec-10 20:47N 35°36' E 139°51'0 0.0
2017-Dec-10 19:50N 35°36' E 139°51'0 0.0
2017-Dec-10 19:17N 35°36' E 139°51'0 0.0
2017-Dec-10 18:59N 35°36' E 139°51'0 0.0
2017-Dec-10 18:23N 35°36' E 139°51'0 0.1
2017-Dec-10 17:56N 35°36' E 139°51'0 0.0
2017-Dec-10 17:26N 35°36' E 139°51'0 0.0
2017-Dec-10 16:50N 35°36' E 139°51'0 0.0
2017-Dec-10 16:23N 35°36' E 139°51'0 0.0
2017-Dec-10 15:59N 35°36' E 139°51'0 0.1
2017-Dec-10 15:30N 35°36' E 139°51'0 0.2
2017-Dec-10 15:00N 35°36' E 139°51'0 0.1
2017-Dec-10 14:30N 35°36' E 139°51'5 8.9
2017-Dec-10 13:58N 35°31' E 139°52'612.0
2017-Dec-10 13:30N 35°26' E 139°49'612.4
2017-Dec-10 13:00N 35°21' E 139°45'611.1
2017-Dec-10 12:31N 35°16' E 139°47'612.1
2017-Dec-10 12:01N 35°10' E 139°46'612.0
2017-Dec-10 11:30N 35°04' E 139°43'612.6
2017-Dec-10 11:01N 35°00' E 139°37'713.4
2017-Dec-10 10:30N 34°56' E 139°30'2414.2
2017-Dec-10 08:48N 34°42' E 139°07'512.4
2017-Dec-10 08:23N 34°39' E 139°02'613.5
2017-Dec-10 07:57N 34°35' E 138°56'1113.2
2017-Dec-10 07:09N 34°33' E 138°44'312.8
2017-Dec-10 06:54N 34°32' E 138°40'513.0
2017-Dec-10 06:30N 34°31' E 138°34'713.1
2017-Dec-10 05:57N 34°29' E 138°25'813.2
2017-Dec-10 05:18N 34°28' E 138°15'413.1
2017-Dec-10 05:00N 34°28' E 138°10'16410.3
2017-Dec-09 13:01N 33°57' E 134°55'1112.8
2017-Dec-09 12:10N 34°05' E 134°47'212.9
2017-Dec-09 12:00N 34°07' E 134°45'813.0
2017-Dec-09 11:25N 34°13' E 134°40'512.2
2017-Dec-09 11:00N 34°16' E 134°35'812.7
2017-Dec-09 10:23N 34°19' E 134°26'1 0.0
2017-Dec-07 10:19N 34°21' E 134°26'412.7
2017-Dec-07 09:58N 34°19' E 134°31'613.5
2017-Dec-07 09:30N 34°16' E 134°38'912.2
2017-Dec-07 08:46N 34°09' E 134°44'312.1
2017-Dec-07 08:31N 34°07' E 134°47'612.3
2017-Dec-07 08:00N 34°02' E 134°51'612.2
2017-Dec-07 07:31N 33°57' E 134°56'  
Track history (hours):
 
Tides and Currents Weather Stations Pressure Air Temp Water Temp Dewpoint Dewpoint Depression Visibility Wind Speed Wind Dir Waves Ship Positions

Ohshima Kazumaru

Last reported at 2017-Dec-14 06:27 UTC. Time now 2017-Dec-15 08:28 UTC.
Position N 34°19' E 134°30'.

Length 69 m; draft 4 m.

Type: Cargo ship. MMSI: 431000925.

Date/timePositionNaut miles runAvg speedWind from/ knotsBaromVisibWave heightAir tempDewpointWater temp
2017-Dec-14 06:27N 34°19' E 134°30'612.1
2017-Dec-14 06:00N 34°16' E 134°36'611.5
2017-Dec-14 05:30N 34°12' E 134°41'611.8
2017-Dec-14 05:00N 34°07' E 134°45'611.5
2017-Dec-14 04:30N 34°03' E 134°49'611.5
2017-Dec-14 04:00N 33°58' E 134°54'611.2
2017-Dec-14 03:30N 33°54' E 134°58'118 9.6
2017-Dec-13 15:11N 34°28' E 137°14'5110.5
2017-Dec-13 10:20N 34°34' E 138°16'410.5
2017-Dec-13 09:57N 34°36' E 138°20'510.7
2017-Dec-13 09:26N 34°39' E 138°26'410.2
2017-Dec-13 09:00N 34°41' E 138°30'4 8.5
2017-Dec-13 08:30N 34°40' E 138°35'4 8.4
2017-Dec-13 08:00N 34°38' E 138°40'4 7.2
2017-Dec-13 07:29N 34°37' E 138°44'3 5.7
2017-Dec-13 06:59N 34°36' E 138°47'3 5.1
2017-Dec-13 06:19N 34°35' E 138°51'2 6.7
2017-Dec-13 05:59N 34°35' E 138°54'4 7.0
2017-Dec-13 05:29N 34°37' E 138°58'510.9
2017-Dec-13 05:00N 34°41' E 139°02'712.5
2017-Dec-13 04:26N 34°47' E 139°06'812.6
2017-Dec-13 03:47N 34°54' E 139°12'412.0
2017-Dec-13 03:29N 34°55' E 139°16'612.1
2017-Dec-13 02:58N 34°59' E 139°23'612.0
2017-Dec-13 02:28N 35°02' E 139°29'512.0
2017-Dec-13 02:00N 35°04' E 139°35'612.7
2017-Dec-13 01:30N 35°07' E 139°41'612.4
2017-Dec-13 01:00N 35°12' E 139°46'611.6
2017-Dec-13 00:31N 35°18' E 139°44'611.6
2017-Dec-13 00:00N 35°24' E 139°43'612.2
2017-Dec-12 23:30N 35°29' E 139°47'510.3
2017-Dec-12 23:00N 35°34' E 139°48'0 0.1
2017-Dec-12 19:29N 35°34' E 139°48'0 0.0
2017-Dec-12 18:41N 35°34' E 139°48'0 0.0
2017-Dec-12 17:26N 35°34' E 139°48'0 0.0
2017-Dec-12 15:26N 35°34' E 139°48'0 0.0
2017-Dec-12 14:59N 35°34' E 139°48'0 0.0
2017-Dec-12 14:29N 35°34' E 139°48'0 0.0
2017-Dec-12 13:59N 35°34' E 139°48'0 0.0
2017-Dec-12 13:29N 35°34' E 139°48'0 0.0
2017-Dec-12 12:59N 35°34' E 139°48'0 0.0
2017-Dec-12 12:17N 35°34' E 139°48'0 0.0
2017-Dec-12 11:59N 35°34' E 139°48'0 0.0
2017-Dec-12 11:29N 35°34' E 139°48'0 0.0
2017-Dec-12 10:17N 35°34' E 139°48'0 0.1
2017-Dec-12 09:56N 35°34' E 139°48'0 0.0
2017-Dec-12 09:20N 35°34' E 139°48'0 0.0
2017-Dec-12 08:56N 35°34' E 139°48'0 0.0
2017-Dec-12 08:26N 35°34' E 139°48'0 0.0
2017-Dec-12 07:59N 35°34' E 139°48'0 0.0
2017-Dec-12 06:08N 35°34' E 139°48'0 0.0
2017-Dec-12 02:53N 35°34' E 139°48'0 0.0
2017-Dec-12 01:56N 35°34' E 139°48'0 0.0
2017-Dec-12 00:23N 35°34' E 139°48'0 0.0
2017-Dec-11 23:56N 35°34' E 139°48'0 0.0
2017-Dec-11 23:26N 35°34' E 139°48'0 0.0
2017-Dec-11 22:56N 35°34' E 139°48'0 0.0
2017-Dec-11 22:29N 35°34' E 139°48'0 0.0
2017-Dec-11 21:59N 35°34' E 139°48'0 0.0
2017-Dec-11 21:31N 35°34' E 139°48'3 5.9
2017-Dec-11 21:00N 35°37' E 139°49'2 0.3
2017-Dec-11 15:32N 35°38' E 139°48'0 3.6
2017-Dec-11 15:30N 35°38' E 139°48'0 0.0
2017-Dec-10 22:57N 35°38' E 139°48'3 6.4
2017-Dec-10 22:29N 35°36' E 139°51'0 0.3
2017-Dec-10 21:50N 35°36' E 139°51'0 0.0
2017-Dec-10 20:47N 35°36' E 139°51'0 0.0
2017-Dec-10 19:50N 35°36' E 139°51'0 0.0
2017-Dec-10 19:17N 35°36' E 139°51'0 0.0
2017-Dec-10 18:59N 35°36' E 139°51'0 0.0
2017-Dec-10 18:23N 35°36' E 139°51'0 0.1
2017-Dec-10 17:56N 35°36' E 139°51'0 0.0
2017-Dec-10 17:26N 35°36' E 139°51'0 0.0
2017-Dec-10 16:50N 35°36' E 139°51'0 0.0
2017-Dec-10 16:23N 35°36' E 139°51'0 0.0
2017-Dec-10 15:59N 35°36' E 139°51'0 0.1
2017-Dec-10 15:30N 35°36' E 139°51'0 0.2
2017-Dec-10 15:00N 35°36' E 139°51'0 0.1
2017-Dec-10 14:30N 35°36' E 139°51'5 8.9
2017-Dec-10 13:58N 35°31' E 139°52'612.0
2017-Dec-10 13:30N 35°26' E 139°49'612.4
2017-Dec-10 13:00N 35°21' E 139°45'611.1
2017-Dec-10 12:31N 35°16' E 139°47'612.1
2017-Dec-10 12:01N 35°10' E 139°46'612.0
2017-Dec-10 11:30N 35°04' E 139°43'612.6
2017-Dec-10 11:01N 35°00' E 139°37'713.4
2017-Dec-10 10:30N 34°56' E 139°30'2414.2
2017-Dec-10 08:48N 34°42' E 139°07'512.4
2017-Dec-10 08:23N 34°39' E 139°02'613.5
2017-Dec-10 07:57N 34°35' E 138°56'1113.2
2017-Dec-10 07:09N 34°33' E 138°44'312.8
2017-Dec-10 06:54N 34°32' E 138°40'513.0
2017-Dec-10 06:30N 34°31' E 138°34'713.1
2017-Dec-10 05:57N 34°29' E 138°25'813.2
2017-Dec-10 05:18N 34°28' E 138°15'413.1
2017-Dec-10 05:00N 34°28' E 138°10'16410.3
2017-Dec-09 13:01N 33°57' E 134°55'1112.8
2017-Dec-09 12:10N 34°05' E 134°47'212.9
2017-Dec-09 12:00N 34°07' E 134°45'813.0
2017-Dec-09 11:25N 34°13' E 134°40'512.2
2017-Dec-09 11:00N 34°16' E 134°35'812.7
2017-Dec-09 10:23N 34°19' E 134°26'1 0.0
2017-Dec-07 10:19N 34°21' E 134°26'412.7
2017-Dec-07 09:58N 34°19' E 134°31'613.5
2017-Dec-07 09:30N 34°16' E 134°38'912.2
2017-Dec-07 08:46N 34°09' E 134°44'312.1
2017-Dec-07 08:31N 34°07' E 134°47'612.3
2017-Dec-07 08:00N 34°02' E 134°51'612.2
2017-Dec-07 07:31N 33°57' E 134°56'  

Dump ship's entire track history